Comte. Rolim Adolfo Amaro–Jundiaí State Airport

METAR SBKP TAF SBKP
28 °C
19
°C
-
28
°C
47m
Age
16:47:09
LT
15:47
UTC
0 ft

1,000

2,000

3,000

4,000

5,000

BKN 3,000
FEW 3,500
VFR
<?= Yii::t('app', 'Wind direction') ?> <?= Yii::t('app', 'of'); ?>
310°
18:57
Sunset
62%
Humidity
Wind shear
Closed/Snow
RWY visual range
RWY condition
Vert. visibility
Min. visibility
CAVOK
Trend
Correction
Special report
1017 hPa
QNH
METAR SBKP 281500Z 31012KT 270V340 9999 VCSH BKN030 FEW035TCU 28/20 Q1017
In the vicinity showers
5 kt
5 kt
12:00
MVFR
5 kt
13:00
MVFR
5 kt
14:00
MVFR
5 kt
15:00
MVFR
5 kt
16:00
MVFR
5 kt
17:00
MVFR
5 kt
18:00
MVFR
5 kt
10 km+
Visibility
3,000 ft
Ceiling
12 kt
Wind
metar-taf.com/SBJD

Metar-Taf.com

Visual decoder

We and third parties follow your internet behavior on our website with cookies. If you continue, we assume you agree with our cookie policy.